Weather at Vallon des Bergons

Public forecast

Using degrees Celsius for public forecast. Weather courtesy of forecast.io.

Closest aviation weather report (METAR) to Vallon des Bergons

Closest report is Tarbes-Lourdes-Pyrénées Airport, 12.1 nm (22.5 km) NE.

2024/07/24 15:30 (retrieved 23 minutes ago)

LFBT 241530Z AUTO 36006KT 330V030 CAVOK 27/19 Q1020 NOSIG

Closest aviation forecast (TAF) to Vallon des Bergons

Closest forecast is Tarbes-Lourdes-Pyrénées Airport, 12.1 nm (22.5 km) NE.

2024/07/24 12:55 (retrieved 3 hours ago)

TAF LFBT 241100Z 2412/2512 35004KT 9999 BKN025 BECMG 2412/2414 SCT030 BECMG 2418/2420 BKN040 BECMG 2420/2422 28007KT BECMG 2501/2503 VRB03KT BECMG 2503/2505 CAVOK